Time;durP1;ratioP1;P1;durP2;ratioP2;P2;SDS_P1;SDS_P2;PMS_P1;PMS_P2;Temp;Humidity;BMP_temperature;BMP_pressure;BME280_temperature;BME280_humidity;BME280_pressure;Samples;Min_cycle;Max_cycle;Signal;HPM_P1;HPM_P2
2023/10/22 00:00:44;;;;;;;6.50;5.28;;;13.70;77.00;;;;;;5095433;28;20028;-64
2023/10/22 00:03:10;;;;;;;7.53;4.97;;;13.60;77.10;;;;;;5096022;28;20473;-63
2023/10/22 00:05:36;;;;;;;6.15;5.13;;;13.60;77.10;;;;;;5095360;28;20026;-63
2023/10/22 00:08:02;;;;;;;7.28;5.57;;;13.50;77.00;;;;;;5094529;28;20028;-62
2023/10/22 00:10:27;;;;;;;8.10;5.80;;;13.50;77.00;;;;;;5095959;28;20107;-62
2023/10/22 00:12:54;;;;;;;7.93;5.80;;;13.50;77.20;;;;;;5095016;28;20107;-63
2023/10/22 00:15:23;;;;;;;7.97;6.13;;;13.50;77.20;;;;;;5090275;28;20361;-64
2023/10/22 00:17:49;;;;;;;7.65;6.15;;;13.40;77.10;;;;;;5086559;28;20521;-62
2023/10/22 00:20:15;;;;;;;8.80;6.63;;;13.40;77.10;;;;;;5094294;28;20059;-62
2023/10/22 00:22:41;;;;;;;8.55;6.28;;;13.40;77.10;;;;;;5095434;28;20424;-62
2023/10/22 00:25:07;;;;;;;7.72;5.90;;;13.40;77.10;;;;;;5094876;28;20162;-62
2023/10/22 00:27:33;;;;;;;12.45;6.10;;;13.30;77.00;;;;;;5094223;28;20054;-62
2023/10/22 00:29:59;;;;;;;8.10;5.90;;;13.30;77.00;;;;;;5095949;28;20028;-63
2023/10/22 00:32:25;;;;;;;6.93;5.55;;;13.20;76.70;;;;;;5091152;28;20351;-63
2023/10/22 00:34:51;;;;;;;9.07;5.28;;;13.20;76.50;;;;;;5091937;28;20036;-64
2023/10/22 00:37:17;;;;;;;5.88;4.85;;;13.10;76.20;;;;;;5094080;28;20093;-63
2023/10/22 00:39:43;;;;;;;6.00;5.13;;;13.10;76.10;;;;;;5095903;28;20043;-62
2023/10/22 00:42:09;;;;;;;6.38;5.20;;;13.00;76.10;;;;;;5098280;28;20027;-62
2023/10/22 00:44:35;;;;;;;6.30;5.40;;;13.00;76.20;;;;;;5093471;28;20788;-62
2023/10/22 00:47:03;;;;;;;7.65;5.68;;;12.90;76.20;;;;;;5095619;28;20020;-62
2023/10/22 00:49:29;;;;;;;7.80;5.25;;;12.90;76.30;;;;;;5096733;28;20388;-62
2023/10/22 00:51:56;;;;;;;12.90;5.50;;;12.80;76.30;;;;;;5088885;28;20058;-62
2023/10/22 00:54:24;;;;;;;6.40;5.60;;;12.80;76.40;;;;;;5091042;28;20849;-63
2023/10/22 00:56:51;;;;;;;7.32;5.65;;;12.70;76.30;;;;;;5090546;28;20036;-64
2023/10/22 00:59:18;;;;;;;6.78;5.18;;;12.70;76.40;;;;;;5088434;28;20060;-64
2023/10/22 01:01:44;;;;;;;9.40;5.63;;;12.60;76.50;;;;;;5083162;28;20034;-62
2023/10/22 01:04:11;;;;;;;6.22;4.97;;;12.60;76.60;;;;;;5065894;28;20032;-62
2023/10/22 01:06:37;;;;;;;5.50;4.95;;;12.50;76.60;;;;;;5089371;28;20379;-63
2023/10/22 01:09:03;;;;;;;5.93;4.88;;;12.50;76.80;;;;;;5085326;28;20036;-63
2023/10/22 01:11:29;;;;;;;9.10;6.20;;;12.40;76.80;;;;;;5089317;28;20019;-63
2023/10/22 01:13:55;;;;;;;8.63;5.60;;;12.40;76.90;;;;;;5088499;28;20024;-63
2023/10/22 01:16:21;;;;;;;7.10;4.88;;;12.30;76.90;;;;;;5089073;28;20039;-63
2023/10/22 01:18:47;;;;;;;8.95;4.53;;;12.30;77.00;;;;;;5094599;28;20097;-64
2023/10/22 01:21:12;;;;;;;6.70;4.53;;;12.30;77.10;;;;;;5091385;28;20023;-62
2023/10/22 01:23:38;;;;;;;4.95;4.07;;;12.30;77.10;;;;;;5083528;28;20082;-63
2023/10/22 01:26:06;;;;;;;4.95;4.20;;;12.20;77.70;;;;;;5088002;28;20520;-62
2023/10/22 01:28:35;;;;;;;4.95;3.90;;;12.20;76.80;;;;;;5093444;28;20654;-64
2023/10/22 01:31:02;;;;;;;7.90;3.65;;;12.20;76.90;;;;;;5096123;28;20020;-63
2023/10/22 01:33:27;;;;;;;5.55;3.65;;;12.10;76.80;;;;;;5092445;28;20028;-63
2023/10/22 01:35:53;;;;;;;4.60;3.45;;;12.10;76.80;;;;;;5091770;28;20411;-62
2023/10/22 01:38:19;;;;;;;4.10;3.70;;;12.00;76.90;;;;;;5091603;28;20051;-63
2023/10/22 01:40:45;;;;;;;4.45;3.80;;;12.00;76.80;;;;;;5086181;28;20032;-63
2023/10/22 01:43:10;;;;;;;4.18;3.53;;;12.00;76.80;;;;;;5093651;28;20469;-62
2023/10/22 01:45:36;;;;;;;4.05;3.53;;;11.90;76.80;;;;;;5087858;28;20474;-62
2023/10/22 01:48:02;;;;;;;4.93;3.70;;;11.90;76.70;;;;;;5090677;28;20028;-63
2023/10/22 01:50:28;;;;;;;5.35;4.07;;;11.90;76.70;;;;;;5090822;28;20137;-62
2023/10/22 01:52:54;;;;;;;4.05;3.40;;;11.80;76.80;;;;;;5084948;28;20500;-62
2023/10/22 01:55:20;;;;;;;9.52;3.67;;;11.80;76.70;;;;;;5087172;28;20492;-63
2023/10/22 01:57:45;;;;;;;5.63;3.92;;;11.70;76.70;;;;;;5089620;28;20040;-62
2023/10/22 02:00:12;;;;;;;4.28;3.33;;;11.70;76.80;;;;;;5083370;28;20470;-63
2023/10/22 02:02:39;;;;;;;5.43;3.35;;;11.70;76.80;;;;;;5094334;28;20143;-62
2023/10/22 02:05:05;;;;;;;4.25;3.67;;;11.60;76.70;;;;;;5086910;28;20428;-63
2023/10/22 02:07:31;;;;;;;3.58;3.28;;;11.60;76.70;;;;;;5091500;28;20113;-62
2023/10/22 02:09:57;;;;;;;6.32;3.47;;;11.60;76.70;;;;;;5086993;28;20277;-64
2023/10/22 02:12:29;;;;;;;6.60;3.40;;;11.60;76.60;;;;;;5091970;28;20394;-63
2023/10/22 02:14:55;;;;;;;4.45;3.00;;;11.50;76.40;;;;;;5085174;28;20031;-63
2023/10/22 02:17:20;;;;;;;3.88;3.00;;;11.50;76.40;;;;;;5092093;28;20075;-62
2023/10/22 02:19:46;;;;;;;5.97;2.67;;;11.40;76.30;;;;;;5090870;28;20112;-62
2023/10/22 02:22:12;;;;;;;3.05;2.50;;;11.30;76.30;;;;;;5087486;28;20024;-62
2023/10/22 02:24:39;;;;;;;3.15;2.33;;;11.30;76.40;;;;;;5091184;28;20048;-62
2023/10/22 02:27:05;;;;;;;3.10;2.80;;;11.30;76.50;;;;;;5083497;28;20367;-62
2023/10/22 02:29:31;;;;;;;4.35;2.50;;;11.30;76.50;;;;;;5087224;28;20028;-63
2023/10/22 02:31:57;;;;;;;3.65;2.90;;;11.20;76.50;;;;;;5086013;28;20032;-62
2023/10/22 02:34:22;;;;;;;3.45;3.15;;;11.20;76.60;;;;;;5088734;28;20020;-61
2023/10/22 02:36:48;;;;;;;4.05;3.10;;;11.20;76.60;;;;;;5088528;28;20027;-63
2023/10/22 02:39:14;;;;;;;4.75;2.65;;;11.10;76.80;;;;;;5088297;28;20056;-62
2023/10/22 02:41:39;;;;;;;4.35;2.50;;;11.10;76.90;;;;;;5086178;28;20020;-62
2023/10/22 02:44:05;;;;;;;4.57;3.08;;;11.10;77.00;;;;;;5085682;28;20021;-62
2023/10/22 02:46:31;;;;;;;3.67;2.33;;;11.10;76.90;;;;;;5087797;28;20395;-62
2023/10/22 02:48:58;;;;;;;2.40;2.20;;;11.10;77.00;;;;;;5088411;28;20023;-63
2023/10/22 02:51:24;;;;;;;5.75;1.95;;;11.10;77.10;;;;;;5092230;28;20048;-63
2023/10/22 02:53:50;;;;;;;4.40;2.17;;;11.00;76.80;;;;;;5094041;28;20054;-63
2023/10/22 02:56:15;;;;;;;2.45;1.90;;;11.00;76.60;;;;;;5066565;28;20028;-63
2023/10/22 02:58:41;;;;;;;2.25;2.00;;;10.90;76.50;;;;;;5085559;28;20071;-64
2023/10/22 03:01:08;;;;;;;6.18;2.20;;;10.90;76.40;;;;;;5083712;28;20039;-63
2023/10/22 03:03:41;;;;;;;3.47;2.10;;;10.90;76.50;;;;;;5091017;28;20035;-62
2023/10/22 03:06:11;;;;;;;2.38;2.17;;;10.80;76.40;;;;;;5081617;28;20028;-63
2023/10/22 03:08:39;;;;;;;2.50;2.30;;;10.80;76.40;;;;;;5089852;28;20115;-63
2023/10/22 03:11:05;;;;;;;2.60;2.30;;;10.80;76.50;;;;;;5085324;28;20032;-62
2023/10/22 03:13:31;;;;;;;3.65;2.28;;;10.70;76.50;;;;;;5089740;28;20125;-62
2023/10/22 03:16:05;;;;;;;4.65;2.25;;;10.70;76.50;;;;;;5087997;28;20596;-63
2023/10/22 03:18:31;;;;;;;2.40;2.20;;;10.70;76.50;;;;;;5086115;28;20086;-62
2023/10/22 03:20:56;;;;;;;2.78;2.25;;;10.60;76.40;;;;;;5071007;28;20028;-63
2023/10/22 03:23:22;;;;;;;3.78;2.30;;;10.60;76.50;;;;;;5089342;28;20081;-62
2023/10/22 03:25:48;;;;;;;6.95;2.30;;;10.60;76.60;;;;;;5089201;28;20125;-64
2023/10/22 03:28:13;;;;;;;2.95;2.50;;;10.60;76.60;;;;;;5094281;28;20039;-62
2023/10/22 03:30:40;;;;;;;2.65;2.33;;;10.50;76.50;;;;;;5081958;28;20035;-63
2023/10/22 03:33:06;;;;;;;3.15;2.30;;;10.50;76.40;;;;;;5091258;28;20020;-63
2023/10/22 03:35:32;;;;;;;4.40;2.70;;;10.50;76.40;;;;;;5069135;28;20035;-62
2023/10/22 03:38:00;;;;;;;3.42;2.10;;;10.50;76.40;;;;;;5090461;28;20044;-63
2023/10/22 03:40:26;;;;;;;2.72;2.17;;;10.40;76.30;;;;;;5089201;28;20028;-62
2023/10/22 03:42:51;;;;;;;5.43;2.22;;;10.40;76.30;;;;;;5087909;28;20028;-63
2023/10/22 03:45:17;;;;;;;2.72;2.35;;;10.40;76.20;;;;;;4998378;28;20052;-63
2023/10/22 03:47:43;;;;;;;2.85;2.08;;;10.30;76.20;;;;;;5087124;28;20055;-62
2023/10/22 03:50:09;;;;;;;2.40;2.10;;;10.30;76.20;;;;;;5086172;28;20016;-63
2023/10/22 03:52:34;;;;;;;6.32;2.20;;;10.30;76.20;;;;;;5089951;28;20031;-63
2023/10/22 03:55:00;;;;;;;2.30;1.92;;;10.20;76.20;;;;;;5083965;28;20020;-63
2023/10/22 03:57:26;;;;;;;2.08;1.83;;;10.20;76.20;;;;;;5082442;28;20020;-61
2023/10/22 03:59:52;;;;;;;1.77;1.67;;;10.20;76.30;;;;;;5063321;28;20047;-63
2023/10/22 04:02:17;;;;;;;2.10;1.90;;;10.10;76.40;;;;;;5082819;28;20037;-62
2023/10/22 04:04:43;;;;;;;2.08;1.73;;;10.10;76.50;;;;;;5086279;28;20028;-63
2023/10/22 04:07:10;;;;;;;1.75;1.65;;;10.10;76.90;;;;;;5093503;28;20393;-62
2023/10/22 04:09:36;;;;;;;2.33;1.85;;;10.10;77.00;;;;;;5085317;28;20040;-62
2023/10/22 04:12:02;;;;;;;3.58;2.08;;;10.10;76.90;;;;;;5082159;28;20074;-63
2023/10/22 04:14:27;;;;;;;1.90;1.80;;;10.10;77.40;;;;;;5083344;28;20028;-62
2023/10/22 04:16:53;;;;;;;1.83;1.73;;;10.10;76.90;;;;;;5087657;28;20035;-62
2023/10/22 04:19:19;;;;;;;2.58;1.95;;;10.00;76.80;;;;;;5087923;28;20024;-63
2023/10/22 04:21:45;;;;;;;5.07;1.98;;;10.00;76.80;;;;;;5088951;28;20098;-63
2023/10/22 04:24:10;;;;;;;2.47;1.80;;;10.00;76.80;;;;;;5088930;28;20028;-62
2023/10/22 04:26:36;;;;;;;1.70;1.60;;;10.00;76.80;;;;;;5088466;28;20359;-62
2023/10/22 04:29:02;;;;;;;1.70;1.60;;;10.00;76.70;;;;;;5093082;28;20120;-62
2023/10/22 04:31:28;;;;;;;2.28;1.70;;;9.90;76.60;;;;;;5095782;28;20024;-64
2023/10/22 04:33:53;;;;;;;1.80;1.70;;;9.90;76.60;;;;;;5092555;28;20366;-63
2023/10/22 04:36:20;;;;;;;1.80;1.70;;;9.90;76.50;;;;;;5090716;28;20036;-62
2023/10/22 04:38:50;;;;;;;1.73;1.63;;;9.90;76.50;;;;;;5092031;28;20023;-62
2023/10/22 04:41:16;;;;;;;1.95;1.70;;;9.90;76.70;;;;;;5092160;28;20467;-62
2023/10/22 04:43:42;;;;;;;1.80;1.70;;;9.80;76.70;;;;;;5093194;28;20085;-62
2023/10/22 04:46:08;;;;;;;2.22;1.80;;;9.80;76.80;;;;;;5082614;28;20035;-62
2023/10/22 04:48:34;;;;;;;3.97;1.90;;;9.80;76.80;;;;;;5089121;28;20035;-61
2023/10/22 04:51:07;;;;;;;8.75;1.90;;;9.70;76.80;;;;;;5091636;28;20035;-63
2023/10/22 04:53:36;;;;;;;1.98;1.52;;;9.70;76.90;;;;;;5086519;28;20047;-62
2023/10/22 04:56:01;;;;;;;3.65;1.83;;;9.70;76.90;;;;;;5094802;28;20539;-62
2023/10/22 04:58:32;;;;;;;1.60;1.42;;;9.70;77.10;;;;;;5094938;28;20047;-63
2023/10/22 05:00:58;;;;;;;3.92;1.77;;;9.70;77.30;;;;;;5087457;28;20032;-62
2023/10/22 05:03:24;;;;;;;2.55;1.70;;;9.90;77.40;;;;;;5089015;28;20062;-62
2023/10/22 05:05:50;;;;;;;2.65;1.92;;;9.70;77.20;;;;;;5092273;28;20481;-62
2023/10/22 05:08:15;;;;;;;2.67;1.98;;;9.60;77.20;;;;;;5084004;28;20032;-63
2023/10/22 05:10:41;;;;;;;7.70;2.28;;;9.60;77.10;;;;;;5089856;28;20099;-62
2023/10/22 05:13:10;;;;;;;1.92;1.83;;;9.60;77.10;;;;;;5090391;28;20012;-62
2023/10/22 05:15:36;;;;;;;2.22;1.73;;;9.60;77.10;;;;;;5086415;28;20035;-63
2023/10/22 05:18:07;;;;;;;2.00;1.80;;;9.60;77.20;;;;;;5088508;28;20094;-62
2023/10/22 05:20:34;;;;;;;2.33;1.55;;;9.60;77.10;;;;;;5085031;28;20058;-63
2023/10/22 05:23:03;;;;;;;2.25;2.05;;;9.50;76.90;;;;;;5090537;28;20036;-62
2023/10/22 05:25:29;;;;;;;2.95;1.75;;;9.50;76.90;;;;;;5090264;28;20040;-63
2023/10/22 05:27:55;;;;;;;3.13;1.83;;;9.50;77.00;;;;;;5072052;28;20405;-63
2023/10/22 05:30:21;;;;;;;3.00;2.15;;;9.50;77.00;;;;;;5088097;28;20020;-62
2023/10/22 05:32:47;;;;;;;2.25;2.05;;;9.40;77.00;;;;;;5090124;28;20478;-62
2023/10/22 05:35:13;;;;;;;2.65;1.90;;;9.50;77.10;;;;;;5070323;28;20492;-63
2023/10/22 05:37:42;;;;;;;2.58;1.98;;;9.40;77.20;;;;;;5093904;28;20027;-63
2023/10/22 05:40:09;;;;;;;2.65;2.05;;;9.40;77.50;;;;;;5090704;28;20531;-63
2023/10/22 05:42:34;;;;;;;2.83;2.30;;;9.40;77.50;;;;;;5087048;28;20494;-62
2023/10/22 05:45:00;;;;;;;2.72;1.98;;;9.40;77.80;;;;;;5085403;28;20028;-61
2023/10/22 05:47:30;;;;;;;4.00;2.17;;;9.40;77.80;;;;;;5086798;28;20013;-61
2023/10/22 05:49:55;;;;;;;4.63;1.95;;;9.40;77.80;;;;;;5087715;28;20069;-63
2023/10/22 05:52:23;;;;;;;2.88;2.35;;;9.40;77.80;;;;;;5086824;28;20466;-63
2023/10/22 05:54:51;;;;;;;2.05;1.90;;;9.40;77.80;;;;;;5094370;28;20036;-62
2023/10/22 05:57:20;;;;;;;3.50;2.38;;;9.40;77.70;;;;;;5084080;28;20054;-62
2023/10/22 05:59:45;;;;;;;7.03;2.65;;;9.40;77.70;;;;;;5089627;28;20111;-62
2023/10/22 06:02:11;;;;;;;5.60;2.88;;;9.30;77.60;;;;;;5093717;28;20128;-62
2023/10/22 06:04:36;;;;;;;3.08;2.50;;;9.30;77.70;;;;;;5088777;28;20035;-63
2023/10/22 06:07:02;;;;;;;3.75;2.50;;;9.30;77.70;;;;;;5086843;28;20039;-61
2023/10/22 06:09:28;;;;;;;5.50;2.55;;;9.30;77.70;;;;;;5082922;28;20077;-63
2023/10/22 06:11:53;;;;;;;2.38;2.08;;;9.30;77.70;;;;;;5086260;28;20096;-63
2023/10/22 06:14:19;;;;;;;1.88;1.73;;;9.30;77.60;;;;;;5087284;28;20519;-63
2023/10/22 06:16:45;;;;;;;3.00;2.33;;;9.30;77.70;;;;;;5088044;28;20583;-62
2023/10/22 06:19:10;;;;;;;3.22;2.40;;;9.30;77.70;;;;;;5082998;28;20025;-63
2023/10/22 06:21:36;;;;;;;3.58;2.08;;;9.30;77.80;;;;;;5086710;28;20096;-64
2023/10/22 06:24:02;;;;;;;2.90;2.33;;;9.30;77.90;;;;;;5079968;28;20020;-62
2023/10/22 06:26:27;;;;;;;3.60;2.65;;;9.30;77.90;;;;;;5082043;28;20032;-64
2023/10/22 06:28:53;;;;;;;3.05;2.50;;;9.30;77.90;;;;;;5087565;28;20119;-63
2023/10/22 06:31:19;;;;;;;3.17;2.45;;;9.40;78.20;;;;;;5087292;28;20028;-64
2023/10/22 06:33:44;;;;;;;4.07;2.13;;;9.40;79.00;;;;;;5090184;28;20024;-65
2023/10/22 06:36:18;;;;;;;3.30;2.50;;;9.40;78.50;;;;;;5086379;28;20028;-65
2023/10/22 06:38:45;;;;;;;3.10;2.73;;;9.50;78.50;;;;;;5088424;28;20031;-63
2023/10/22 06:41:24;;;;;;;5.47;2.53;;;9.50;78.40;;;;;;5088468;28;20530;-64
2023/10/22 06:43:50;;;;;;;2.47;2.28;;;9.50;78.50;;;;;;5090511;28;20092;-64
2023/10/22 06:46:18;;;;;;;2.80;2.47;;;9.60;78.40;;;;;;5087118;28;20544;-63
2023/10/22 06:48:44;;;;;;;3.63;2.50;;;9.60;78.40;;;;;;5091223;28;20031;-64
2023/10/22 06:51:10;;;;;;;2.67;2.45;;;9.70;78.60;;;;;;5089544;28;20621;-64
2023/10/22 06:53:37;;;;;;;3.35;2.50;;;9.70;78.50;;;;;;5082534;28;20082;-64
2023/10/22 06:56:04;;;;;;;3.85;2.88;;;9.80;78.60;;;;;;5086604;28;20031;-63
2023/10/22 06:58:30;;;;;;;5.75;3.78;;;9.80;78.70;;;;;;5090813;28;20707;-63
2023/10/22 07:01:10;;;;;;;13.25;7.35;;;9.90;78.80;;;;;;5086083;28;20442;-64
2023/10/22 07:03:37;;;;;;;7.57;5.18;;;9.90;79.10;;;;;;5092125;28;20023;-64
2023/10/22 07:06:03;;;;;;;6.57;4.30;;;10.00;79.10;;;;;;5062068;28;20082;-65
2023/10/22 07:08:29;;;;;;;5.38;4.40;;;10.10;79.50;;;;;;5082982;28;20038;-64
2023/10/22 07:10:56;;;;;;;7.47;4.78;;;10.20;79.60;;;;;;5089108;28;20040;-64
2023/10/22 07:13:22;;;;;;;10.43;5.22;;;10.30;79.80;;;;;;5094218;28;20039;-64
2023/10/22 07:15:48;;;;;;;6.45;4.82;;;10.40;79.80;;;;;;5088698;28;20065;-64
2023/10/22 07:18:14;;;;;;;5.13;4.00;;;10.50;79.80;;;;;;5088570;28;20036;-66
2023/10/22 07:20:40;;;;;;;16.80;10.27;;;10.60;79.80;;;;;;5085829;28;20031;-63
2023/10/22 07:23:06;;;;;;;21.10;14.88;;;10.70;79.70;;;;;;5091327;28;20019;-63
2023/10/22 07:25:33;;;;;;;21.92;15.40;;;10.90;79.70;;;;;;5087158;28;20046;-63
2023/10/22 07:27:59;;;;;;;9.70;7.55;;;10.90;79.50;;;;;;5087349;28;20051;-64
2023/10/22 07:30:24;;;;;;;7.32;5.75;;;11.10;79.60;;;;;;5090813;28;20179;-64
2023/10/22 07:32:53;;;;;;;5.10;4.22;;;11.20;79.50;;;;;;5086833;28;20028;-64
2023/10/22 07:35:20;;;;;;;5.95;4.38;;;11.30;79.50;;;;;;5087571;28;20028;-64
2023/10/22 07:37:45;;;;;;;4.78;3.70;;;11.40;79.50;;;;;;5082515;28;20043;-63
2023/10/22 07:40:17;;;;;;;4.78;3.63;;;11.60;79.60;;;;;;5092870;28;20027;-64
2023/10/22 07:42:44;;;;;;;4.30;3.15;;;11.70;79.60;;;;;;5091617;28;20073;-64
2023/10/22 07:45:11;;;;;;;5.80;2.63;;;11.80;79.70;;;;;;5085224;28;20028;-65
2023/10/22 07:47:37;;;;;;;5.68;2.20;;;12.00;80.00;;;;;;4967462;28;20035;-64
2023/10/22 07:50:06;;;;;;;3.72;1.95;;;12.10;80.20;;;;;;5079935;28;20029;-63
2023/10/22 07:52:32;;;;;;;3.15;2.10;;;12.40;80.80;;;;;;5069005;28;20425;-63
2023/10/22 07:54:58;;;;;;;3.60;2.20;;;12.50;80.50;;;;;;5088644;28;20437;-63
2023/10/22 07:57:28;;;;;;;3.22;1.90;;;12.70;80.30;;;;;;5084880;28;20032;-63
2023/10/22 07:59:55;;;;;;;3.00;1.92;;;12.90;80.10;;;;;;5087294;28;20028;-64
2023/10/22 08:02:21;;;;;;;3.88;2.25;;;13.10;79.50;;;;;;5083534;28;20131;-65
2023/10/22 08:04:47;;;;;;;3.97;2.20;;;13.30;78.80;;;;;;5094618;28;20533;-63
2023/10/22 08:07:13;;;;;;;3.50;1.80;;;13.40;78.30;;;;;;5090401;28;20536;-66
2023/10/22 08:09:38;;;;;;;5.15;1.83;;;13.50;77.90;;;;;;5086895;28;20028;-64
2023/10/22 08:12:04;;;;;;;3.90;1.80;;;13.70;77.60;;;;;;5092743;28;20050;-65
2023/10/22 08:14:30;;;;;;;3.65;2.17;;;13.80;77.50;;;;;;5089794;28;20039;-64
2023/10/22 08:16:57;;;;;;;4.50;2.03;;;13.90;77.30;;;;;;5085737;28;20840;-62
2023/10/22 08:19:23;;;;;;;3.00;2.10;;;14.00;76.80;;;;;;5091460;28;20047;-63
2023/10/22 08:21:48;;;;;;;4.57;2.28;;;14.10;76.70;;;;;;5092548;28;20028;-65
2023/10/22 08:24:14;;;;;;;3.35;2.22;;;14.20;76.40;;;;;;5098262;28;20084;-63
2023/10/22 08:26:40;;;;;;;5.63;2.10;;;14.30;76.30;;;;;;5092878;28;20034;-65
2023/10/22 08:29:05;;;;;;;3.15;2.03;;;14.40;76.20;;;;;;5087143;28;20054;-64
2023/10/22 08:31:32;;;;;;;3.97;2.22;;;14.50;76.10;;;;;;5093795;28;20457;-65
2023/10/22 08:33:57;;;;;;;5.45;2.00;;;14.50;75.80;;;;;;5093538;28;20020;-64
2023/10/22 08:36:23;;;;;;;3.95;1.95;;;14.70;75.70;;;;;;5093772;28;20032;-65
2023/10/22 08:38:49;;;;;;;3.10;1.85;;;14.80;75.20;;;;;;5092220;28;20043;-64
2023/10/22 08:41:20;;;;;;;4.07;1.40;;;14.90;74.90;;;;;;5085987;28;20393;-64
2023/10/22 08:43:48;;;;;;;3.00;1.50;;;14.90;74.20;;;;;;5086774;28;20036;-65
2023/10/22 08:46:15;;;;;;;2.78;1.23;;;15.00;73.90;;;;;;5085442;28;20032;-63
2023/10/22 08:48:41;;;;;;;2.88;1.30;;;15.10;73.70;;;;;;5089894;28;20023;-64
2023/10/22 08:51:07;;;;;;;4.53;1.23;;;15.20;73.40;;;;;;5087557;28;20024;-64
2023/10/22 08:53:35;;;;;;;3.40;1.30;;;15.20;73.30;;;;;;5092009;28;20024;-64
2023/10/22 08:56:01;;;;;;;4.97;1.60;;;15.30;73.30;;;;;;5094334;28;20115;-63
2023/10/22 08:58:27;;;;;;;2.83;1.15;;;15.40;73.00;;;;;;5099888;28;20174;-64
2023/10/22 09:00:54;;;;;;;5.00;1.50;;;15.50;72.90;;;;;;5084944;28;20126;-64
2023/10/22 09:03:21;;;;;;;4.38;1.50;;;15.60;72.40;;;;;;5084198;28;20573;-63
2023/10/22 09:05:47;;;;;;;5.35;1.58;;;15.60;71.80;;;;;;5092517;28;20045;-65
2023/10/22 09:08:14;;;;;;;4.57;1.50;;;15.70;71.80;;;;;;5094869;28;20475;-65
2023/10/22 09:10:40;;;;;;;5.88;1.33;;;15.80;71.60;;;;;;5084183;28;20553;-64
2023/10/22 09:13:25;;;;;;;4.15;1.40;;;15.90;71.60;;;;;;5090896;28;20022;-65
2023/10/22 09:15:54;;;;;;;2.28;1.10;;;16.00;70.80;;;;;;5071830;28;20028;-64
2023/10/22 09:18:20;;;;;;;3.50;1.20;;;16.00;71.10;;;;;;5070833;28;20048;-64
2023/10/22 09:20:46;;;;;;;2.20;1.17;;;16.10;70.90;;;;;;5092796;28;20035;-65
2023/10/22 09:23:14;;;;;;;1.55;0.93;;;16.20;71.00;;;;;;5086539;28;20077;-64
2023/10/22 09:25:41;;;;;;;4.40;1.90;;;16.30;71.00;;;;;;5092717;28;20040;-65
2023/10/22 09:28:13;;;;;;;2.40;1.20;;;16.40;70.10;;;;;;5089627;28;20044;-65
2023/10/22 09:30:40;;;;;;;3.88;1.13;;;16.50;70.10;;;;;;5085572;28;20089;-65
2023/10/22 09:33:08;;;;;;;4.63;1.70;;;16.60;69.80;;;;;;5090337;28;20039;-65
2023/10/22 09:35:34;;;;;;;3.58;0.93;;;16.80;69.60;;;;;;5093543;28;20386;-65
2023/10/22 09:38:00;;;;;;;5.07;1.02;;;16.80;69.50;;;;;;5088676;28;20036;-65
2023/10/22 09:40:27;;;;;;;5.57;1.55;;;16.90;68.90;;;;;;5089855;28;20031;-66
2023/10/22 09:42:54;;;;;;;5.10;1.23;;;17.00;66.90;;;;;;5092991;28;20024;-64
2023/10/22 09:45:25;;;;;;;7.97;1.10;;;17.00;67.10;;;;;;5057245;28;20104;-61
2023/10/22 09:47:56;;;;;;;2.45;1.17;;;17.10;65.50;;;;;;5092302;28;20032;-65
2023/10/22 09:50:22;;;;;;;2.88;1.10;;;17.20;66.20;;;;;;5073613;28;20637;-65
2023/10/22 09:52:51;;;;;;;3.40;0.85;;;17.30;65.50;;;;;;5087929;28;20028;-65
2023/10/22 09:55:19;;;;;;;4.00;1.10;;;17.40;64.10;;;;;;5088465;28;20040;-65
2023/10/22 09:57:46;;;;;;;3.35;0.90;;;17.50;63.30;;;;;;5071763;28;20362;-65
2023/10/22 10:00:12;;;;;;;3.35;0.65;;;17.50;63.00;;;;;;5088423;28;20024;-64
2023/10/22 10:02:42;;;;;;;2.85;0.75;;;17.50;62.80;;;;;;5089836;28;20021;-65
2023/10/22 10:05:11;;;;;;;2.72;1.05;;;17.80;62.20;;;;;;5093175;28;20027;-65
2023/10/22 10:07:40;;;;;;;2.38;0.95;;;17.60;61.30;;;;;;5085103;28;20537;-65
2023/10/22 10:10:08;;;;;;;4.20;1.00;;;17.60;61.00;;;;;;5088379;28;20102;-66
2023/10/22 10:12:40;;;;;;;3.40;1.10;;;17.70;60.90;;;;;;5087231;28;20040;-66
2023/10/22 10:15:06;;;;;;;2.70;0.90;;;17.70;60.40;;;;;;5087920;28;20474;-66
2023/10/22 10:17:51;;;;;;;3.15;1.00;;;17.80;61.00;;;;;;5082906;28;20170;-64
2023/10/22 10:20:24;;;;;;;2.03;0.90;;;17.90;59.70;;;;;;5091774;28;20016;-64
2023/10/22 10:23:08;;;;;;;2.45;0.88;;;18.00;59.40;;;;;;5081918;28;20020;-65
2023/10/22 10:25:35;;;;;;;2.28;0.80;;;18.10;58.30;;;;;;5086240;28;20047;-66
2023/10/22 10:28:06;;;;;;;8.32;1.20;;;18.10;59.20;;;;;;5087812;28;20024;-65
2023/10/22 10:30:33;;;;;;;3.75;1.27;;;18.10;58.50;;;;;;5086900;28;20051;-64
2023/10/22 10:32:59;;;;;;;1.42;0.70;;;18.20;58.40;;;;;;5089907;28;20039;-65
2023/10/22 10:35:27;;;;;;;3.08;1.02;;;18.20;58.50;;;;;;5088292;28;20028;-65
2023/10/22 10:38:15;;;;;;;3.20;0.80;;;18.30;58.30;;;;;;5088722;28;20031;-64
2023/10/22 10:40:55;;;;;;;3.17;0.85;;;18.40;57.90;;;;;;5089218;28;20032;-66
2023/10/22 10:44:01;;;;;;;4.35;1.00;;;18.50;58.00;;;;;;5094288;28;20043;-64
2023/10/22 10:46:28;;;;;;;2.28;0.70;;;18.60;56.60;;;;;;5080183;28;20044;-64
2023/10/22 10:48:54;;;;;;;4.55;0.70;;;18.70;57.30;;;;;;5090737;28;20054;-65
2023/10/22 10:51:24;;;;;;;1.40;0.60;;;18.80;57.60;;;;;;5086583;28;20028;-64
2023/10/22 10:54:12;;;;;;;1.92;0.70;;;18.80;56.40;;;;;;5087301;28;20051;-64
2023/10/22 10:56:50;;;;;;;2.95;0.80;;;18.80;55.20;;;;;;5091277;28;20469;-65
2023/10/22 10:59:29;;;;;;;2.47;0.95;;;18.80;54.70;;;;;;5088512;28;20035;-67
2023/10/22 11:02:11;;;;;;;2.92;0.82;;;18.90;55.50;;;;;;5083643;28;20102;-65
2023/10/22 11:04:47;;;;;;;3.78;0.85;;;18.80;54.00;;;;;;5086412;28;20102;-65
2023/10/22 11:07:14;;;;;;;2.38;0.90;;;18.90;54.80;;;;;;5082952;28;20043;-64
2023/10/22 11:09:40;;;;;;;2.72;0.85;;;18.90;55.60;;;;;;5084384;28;20111;-66
2023/10/22 11:12:08;;;;;;;2.47;0.70;;;18.90;55.20;;;;;;5084248;28;20055;-65
2023/10/22 11:14:37;;;;;;;3.17;0.82;;;19.00;54.90;;;;;;5087797;28;20027;-65
2023/10/22 11:17:03;;;;;;;4.10;1.00;;;19.10;54.80;;;;;;5088235;28;20036;-65
2023/10/22 11:19:31;;;;;;;2.30;0.85;;;19.10;55.20;;;;;;5087866;28;20027;-66
2023/10/22 11:21:58;;;;;;;3.13;0.70;;;19.20;54.30;;;;;;5090384;28;20020;-65
2023/10/22 11:24:28;;;;;;;2.03;0.63;;;19.30;54.50;;;;;;5087783;28;20047;-64
2023/10/22 11:26:55;;;;;;;5.53;0.95;;;19.20;53.00;;;;;;5090971;28;20032;-65
2023/10/22 11:29:21;;;;;;;4.00;0.90;;;19.20;52.80;;;;;;5089915;28;20110;-64
2023/10/22 11:31:57;;;;;;;2.22;0.80;;;19.10;52.30;;;;;;5085257;28;20035;-64
2023/10/22 11:34:23;;;;;;;4.18;1.30;;;19.00;51.80;;;;;;5089380;28;20028;-65
2023/10/22 11:36:58;;;;;;;5.68;1.10;;;18.90;52.30;;;;;;5091636;28;20078;-64
2023/10/22 11:39:34;;;;;;;5.28;0.70;;;18.80;51.70;;;;;;5085831;28;20065;-65
2023/10/22 11:42:03;;;;;;;2.38;0.63;;;18.70;52.20;;;;;;5081149;28;20478;-65
2023/10/22 11:44:34;;;;;;;1.05;0.60;;;18.60;53.20;;;;;;5098759;28;20027;-65
2023/10/22 11:47:24;;;;;;;2.17;0.60;;;18.50;53.00;;;;;;5083326;28;20059;-65
2023/10/22 11:49:50;;;;;;;1.63;0.60;;;18.50;52.50;;;;;;5082321;28;20354;-65
2023/10/22 11:52:34;;;;;;;1.80;0.50;;;18.50;52.60;;;;;;5083265;28;20543;-65
2023/10/22 11:55:00;;;;;;;1.33;0.55;;;18.50;52.60;;;;;;5089248;28;20046;-65
2023/10/22 11:57:26;;;;;;;2.60;0.55;;;18.60;54.70;;;;;;5088925;28;20028;-64
2023/10/22 11:59:52;;;;;;;4.65;0.77;;;18.70;54.00;;;;;;5085937;28;20031;-65
2023/10/22 12:02:17;;;;;;;1.88;0.50;;;18.80;53.60;;;;;;5086149;28;20051;-65
2023/10/22 12:04:43;;;;;;;2.50;0.50;;;19.00;53.50;;;;;;5084506;28;20044;-65
2023/10/22 12:07:09;;;;;;;1.67;0.60;;;19.10;53.40;;;;;;5094792;28;20473;-65
2023/10/22 12:09:34;;;;;;;1.10;0.50;;;19.20;52.00;;;;;;5084886;28;20406;-66
2023/10/22 12:12:00;;;;;;;1.63;0.40;;;19.30;50.70;;;;;;5090586;28;20059;-65
2023/10/22 12:14:25;;;;;;;3.45;0.60;;;19.30;51.70;;;;;;5089424;28;20123;-64
2023/10/22 12:16:51;;;;;;;1.55;0.50;;;19.30;50.30;;;;;;5089294;28;20416;-64
2023/10/22 12:19:17;;;;;;;1.83;0.60;;;19.30;50.20;;;;;;5068302;28;20036;-64
2023/10/22 12:21:43;;;;;;;1.60;0.75;;;19.30;50.00;;;;;;5090318;28;20114;-65
2023/10/22 12:24:08;;;;;;;2.78;0.63;;;19.20;49.90;;;;;;5084130;28;20031;-64
2023/10/22 12:26:34;;;;;;;1.08;0.55;;;19.10;49.30;;;;;;5085108;28;20028;-64
2023/10/22 12:29:00;;;;;;;1.10;0.40;;;19.00;50.10;;;;;;5091194;28;20051;-65
2023/10/22 12:31:25;;;;;;;3.42;0.60;;;18.90;50.40;;;;;;5089677;28;20032;-65
2023/10/22 12:33:51;;;;;;;1.77;0.80;;;18.80;50.00;;;;;;5071853;28;20032;-65
2023/10/22 12:36:17;;;;;;;1.58;0.50;;;18.80;50.50;;;;;;5067681;28;20089;-66
2023/10/22 12:38:42;;;;;;;4.20;0.50;;;18.80;50.20;;;;;;5090650;28;20100;-66
2023/10/22 12:41:08;;;;;;;1.42;0.60;;;18.90;51.40;;;;;;5088602;28;20032;-64
2023/10/22 12:43:33;;;;;;;1.58;0.50;;;19.00;51.40;;;;;;5070377;28;20470;-65
2023/10/22 12:46:04;;;;;;;1.50;0.50;;;19.10;51.20;;;;;;5083749;28;20020;-65
2023/10/22 12:48:29;;;;;;;1.33;0.50;;;19.20;50.80;;;;;;5087700;28;20100;-66